Gulf Reliance — WDD2703 — position and weather

sailwx.info

Track history (hours):
 
Tides and Currents Weather Stations Pressure Air Temp Water Temp Dewpoint Dewpoint Depression Visibility Wind Speed Wind Dir Waves Ship Positions

Gulf Reliance

Owner: Intrepid Ship Management, Jacksonville, FL. More information available from US FCC via Universal Licensing System and Coast Guard Vessel Documentation Center.

Last reported at 2018-Apr-22 16:01 UTC. Time now 2018-Apr-22 16:26 UTC.
Position N 33°48' W 120°45'.

Type: Towing. MMSI: 303668000.

Date/timePositionNaut miles runAvg speedWind from/ knotsBaromVisibWave heightAir tempDewpointWater temp
2018-Apr-22 16:01N 33°48' W 120°45'612.2
2018-Apr-22 15:30N 33°51' W 120°52'611.8
2018-Apr-22 15:00N 33°54' W 120°58'611.9
2018-Apr-22 14:28N 33°56' W 121°05'611.5
2018-Apr-22 14:00N 33°58' W 121°12'611.3
2018-Apr-22 13:30N 34°00' W 121°18'611.4
2018-Apr-22 13:01N 34°02' W 121°24'611.2
2018-Apr-22 12:30N 34°05' W 121°30'510.8
2018-Apr-22 12:01N 34°08' W 121°35'611.0
2018-Apr-22 11:29N 34°12' W 121°40'510.9
2018-Apr-22 11:00N 34°16' W 121°45'611.1
2018-Apr-22 10:28N 34°20' W 121°49'511.1
2018-Apr-22 10:00N 34°24' W 121°53'611.2
2018-Apr-22 09:30N 34°29' W 121°58'611.4
2018-Apr-22 09:00N 34°33' W 122°02'611.6
2018-Apr-22 08:29N 34°38' W 122°07'611.4
2018-Apr-22 08:00N 34°42' W 122°11'511.2
2018-Apr-22 07:30N 34°46' W 122°16'611.0
2018-Apr-22 07:00N 34°50' W 122°20'711.1
2018-Apr-22 06:20N 34°56' W 122°26'411.1
2018-Apr-22 05:57N 34°59' W 122°29'511.2
2018-Apr-22 05:30N 35°03' W 122°33'611.3
2018-Apr-22 05:00N 35°07' W 122°37'711.4
2018-Apr-22 04:21N 35°13' W 122°43'411.1
2018-Apr-22 03:59N 35°16' W 122°46'511.0
2018-Apr-22 03:30N 35°20' W 122°50'711.2
2018-Apr-22 02:50N 35°27' W 122°56'411.4
2018-Apr-22 02:30N 35°30' W 122°58'511.2
2018-Apr-22 02:00N 35°35' W 123°00'611.3
2018-Apr-22 01:29N 35°41' W 123°01'611.4
2018-Apr-22 00:55N 35°47' W 123°01'511.6
2018-Apr-22 00:29N 35°52' W 123°02'611.8
2018-Apr-22 00:00N 35°58' W 123°02'611.7
2018-Apr-21 23:30N 36°04' W 123°03'611.9
2018-Apr-21 23:00N 36°10' W 123°03'611.7
2018-Apr-21 22:30N 36°16' W 123°04'611.7
2018-Apr-21 21:59N 36°22' W 123°04'911.7
2018-Apr-21 21:14N 36°30' W 123°05'311.8
2018-Apr-21 20:58N 36°33' W 123°06'911.6
2018-Apr-21 20:14N 36°42' W 123°06'311.8
2018-Apr-21 20:00N 36°45' W 123°06'711.8
2018-Apr-21 19:23N 36°52' W 123°07'411.7
2018-Apr-21 19:00N 36°56' W 123°07'611.7
2018-Apr-21 18:30N 37°02' W 123°08'611.3
2018-Apr-21 17:58N 37°08' W 123°08'511.3
2018-Apr-21 17:30N 37°14' W 123°08'611.3
2018-Apr-21 17:00N 37°19' W 123°08'611.4
2018-Apr-21 16:30N 37°25' W 123°09'510.9
2018-Apr-21 16:01N 37°30' W 123°08'510.5
2018-Apr-21 15:30N 37°34' W 123°04'5 9.4
2018-Apr-21 15:00N 37°37' W 122°59'5 9.6
2018-Apr-21 14:30N 37°39' W 122°54'5 9.7
2018-Apr-21 14:00N 37°42' W 122°49'511.0
2018-Apr-21 13:30N 37°45' W 122°43'510.1
2018-Apr-21 13:00N 37°46' W 122°37'612.1
2018-Apr-21 12:30N 37°49' W 122°30'5 9.3
2018-Apr-21 12:00N 37°49' W 122°24'510.4
2018-Apr-21 11:30N 37°44' W 122°21'1 2.8
2018-Apr-21 11:00N 37°43' W 122°20'0 0.0
2018-Apr-21 10:30N 37°43' W 122°20'0 0.0
2018-Apr-21 10:00N 37°43' W 122°20'0 0.0
2018-Apr-21 09:30N 37°43' W 122°20'0 0.0
2018-Apr-21 09:00N 37°43' W 122°20'0 0.0
2018-Apr-21 08:30N 37°43' W 122°20'0 0.0
2018-Apr-21 07:57N 37°43' W 122°20'0 0.0
2018-Apr-21 07:30N 37°43' W 122°20'0 0.1
2018-Apr-21 07:00N 37°43' W 122°20'0 0.2
2018-Apr-21 06:30N 37°43' W 122°20'0 0.2
2018-Apr-21 06:00N 37°43' W 122°20'0 0.1
2018-Apr-21 05:30N 37°43' W 122°20'0 0.1
2018-Apr-21 05:00N 37°43' W 122°20'0 0.0
2018-Apr-21 04:30N 37°43' W 122°20'0 0.1
2018-Apr-21 04:00N 37°43' W 122°20'0 0.0
2018-Apr-21 03:30N 37°43' W 122°20'0 0.1
2018-Apr-21 03:00N 37°43' W 122°20'0 0.1
2018-Apr-21 02:30N 37°43' W 122°20'0 0.1
2018-Apr-21 02:00N 37°43' W 122°20'0 0.1
2018-Apr-21 01:30N 37°43' W 122°20'0 0.1
2018-Apr-21 00:57N 37°43' W 122°20'0 0.0
2018-Apr-21 00:30N 37°43' W 122°20'0 0.0
2018-Apr-21 00:00N 37°43' W 122°20'0 0.1
2018-Apr-20 23:30N 37°43' W 122°20'0 0.0
2018-Apr-20 23:00N 37°43' W 122°20'0 0.0
2018-Apr-20 22:30N 37°43' W 122°20'0 0.0
2018-Apr-20 22:00N 37°43' W 122°20'0 0.0
2018-Apr-20 21:30N 37°43' W 122°20'0 0.0
2018-Apr-20 21:00N 37°43' W 122°20'0 0.1
2018-Apr-20 20:30N 37°43' W 122°20'0 0.0
2018-Apr-20 20:00N 37°43' W 122°20'0 0.0
2018-Apr-20 19:30N 37°43' W 122°20'0 0.0
2018-Apr-20 19:00N 37°43' W 122°20'0 0.2
2018-Apr-20 18:30N 37°43' W 122°20'0 0.3
2018-Apr-20 17:57N 37°43' W 122°20'0 0.1
2018-Apr-20 17:30N 37°43' W 122°20'0 0.0
2018-Apr-20 17:00N 37°43' W 122°20'0 0.0
2018-Apr-20 16:30N 37°43' W 122°20'0 0.0
2018-Apr-20 16:00N 37°43' W 122°20'0 0.0
2018-Apr-20 15:30N 37°43' W 122°20'0 0.0
2018-Apr-20 15:00N 37°43' W 122°20'0 0.0
2018-Apr-20 14:30N 37°43' W 122°20'0 0.0
2018-Apr-20 14:00N 37°43' W 122°20'0 0.0
2018-Apr-20 13:30N 37°43' W 122°20'0 0.0
2018-Apr-20 13:00N 37°43' W 122°20'0 0.0
2018-Apr-20 12:30N 37°43' W 122°20'0 0.1
2018-Apr-20 12:00N 37°43' W 122°20'0 0.2
2018-Apr-20 11:30N 37°43' W 122°20'0 0.2
2018-Apr-20 11:00N 37°43' W 122°20'0 0.1
2018-Apr-20 10:30N 37°43' W 122°20'0 0.0
2018-Apr-20 10:00N 37°43' W 122°20'0 0.1
2018-Apr-20 09:30N 37°43' W 122°20'0 0.0
2018-Apr-20 09:00N 37°43' W 122°20'0 0.0
2018-Apr-20 08:30N 37°43' W 122°20'0 0.0
2018-Apr-20 08:00N 37°43' W 122°20'0 0.0
2018-Apr-20 07:30N 37°43' W 122°20'0 0.0
2018-Apr-20 07:00N 37°43' W 122°20'0 0.0
2018-Apr-20 06:30N 37°43' W 122°20'0 0.1
2018-Apr-20 06:00N 37°43' W 122°20'0 0.2
2018-Apr-20 05:30N 37°43' W 122°20'0 0.2
2018-Apr-20 05:00N 37°43' W 122°20'0 0.2
2018-Apr-20 04:30N 37°43' W 122°20'0 0.0
2018-Apr-20 04:00N 37°43' W 122°20'0 0.2
2018-Apr-20 03:30N 37°43' W 122°20'3 5.8
2018-Apr-20 03:00N 37°46' W 122°22'4 9.0
2018-Apr-20 02:30N 37°50' W 122°24'510.6
2018-Apr-20 02:00N 37°55' W 122°27'510.7
2018-Apr-20 01:30N 37°60' W 122°25'5 9.6
2018-Apr-20 01:00N 38°03' W 122°20'4 8.5
2018-Apr-20 00:30N 38°04' W 122°15'4 6.9
2018-Apr-19 23:59N 38°03' W 122°11'2 4.2
2018-Apr-19 23:26N 38°02' W 122°08'0 0.2
2018-Apr-19 22:56N 38°02' W 122°08'0 0.0
2018-Apr-19 22:26N 38°02' W 122°08'0 0.0
2018-Apr-19 21:56N 38°02' W 122°08'0 0.0
2018-Apr-19 21:26N 38°02' W 122°08'0 0.0
2018-Apr-19 20:56N 38°02' W 122°08'0 0.0
2018-Apr-19 20:20N 38°02' W 122°08'0 0.0
2018-Apr-19 19:56N 38°02' W 122°08'0 0.0
2018-Apr-19 19:26N 38°02' W 122°08'0 0.0
2018-Apr-19 18:50N 38°02' W 122°08'0 0.0
2018-Apr-19 18:26N 38°02' W 122°08'0 0.0
2018-Apr-19 17:26N 38°02' W 122°08'0 0.0
2018-Apr-19 16:56N 38°02' W 122°08'0 0.0
2018-Apr-19 16:26N 38°02' W 122°08'0 0.0
2018-Apr-19 15:56N 38°02' W 122°08'0 0.0
2018-Apr-19 15:26N 38°02' W 122°08'0 0.0
2018-Apr-19 14:56N 38°02' W 122°08'0 0.0
2018-Apr-19 14:26N 38°02' W 122°08'0 0.0
2018-Apr-19 13:56N 38°02' W 122°08'0 0.0
2018-Apr-19 13:20N 38°02' W 122°08'0 0.0
2018-Apr-19 12:50N 38°02' W 122°08'0 0.0
2018-Apr-19 12:26N 38°02' W 122°08'0 0.0
2018-Apr-19 11:44N 38°02' W 122°08'0 0.0
2018-Apr-19 11:26N 38°02' W 122°08'0 0.0
2018-Apr-19 10:56N 38°02' W 122°08'0 0.0
2018-Apr-19 10:20N 38°02' W 122°08'0 0.0
2018-Apr-19 09:56N 38°02' W 122°08'0 0.0
2018-Apr-19 09:26N 38°02' W 122°08'0 0.0
2018-Apr-19 08:56N 38°02' W 122°08'0 0.0
2018-Apr-19 08:26N 38°02' W 122°08'0 0.0
2018-Apr-19 07:56N 38°02' W 122°08'0 0.0
2018-Apr-19 07:26N 38°02' W 122°08'0 0.0
2018-Apr-19 06:56N 38°02' W 122°08'0 0.0
2018-Apr-19 06:20N 38°02' W 122°08'0 0.0
2018-Apr-19 05:56N 38°02' W 122°08'0 0.0
2018-Apr-19 05:26N 38°02' W 122°08'0 0.0
2018-Apr-19 04:50N 38°02' W 122°08'0 0.0
2018-Apr-19 04:26N 38°02' W 122°08'0 0.0
2018-Apr-19 03:56N 38°02' W 122°08'0 0.0
2018-Apr-19 03:26N 38°02' W 122°08'0 0.0
2018-Apr-19 02:56N 38°02' W 122°08'0 0.0
2018-Apr-19 02:26N 38°02' W 122°08'0 0.0
2018-Apr-19 01:50N 38°02' W 122°08'0 0.0
2018-Apr-19 01:26N 38°02' W 122°08'0 0.0
2018-Apr-19 00:50N 38°02' W 122°08'0 0.0
2018-Apr-19 00:26N 38°02' W 122°08'0 0.0
2018-Apr-18 23:50N 38°02' W 122°08'0 0.0
2018-Apr-18 23:26N 38°02' W 122°08'0 0.0
2018-Apr-18 22:56N 38°02' W 122°08'0 0.0
2018-Apr-18 22:14N 38°02' W 122°08'0 0.0
2018-Apr-18 21:50N 38°02' W 122°08'0 0.0
2018-Apr-18 21:08N 38°02' W 122°08'0 0.0
2018-Apr-18 20:38N 38°02' W 122°08'0 0.0
2018-Apr-18 20:14N 38°02' W 122°08'0 0.0
2018-Apr-18 19:50N 38°02' W 122°08'0 0.0
2018-Apr-18 19:26N 38°02' W 122°08'0 0.0
2018-Apr-18 18:56N 38°02' W 122°08'0 0.0
2018-Apr-18 18:20N 38°02' W 122°08'0 0.0
2018-Apr-18 17:32N 38°02' W 122°08'0 0.0
2018-Apr-18 17:26N 38°02' W 122°08'0 0.0
2018-Apr-18 16:56N 38°02' W 122°08'0 0.0
2018-Apr-18 16:26N 38°02' W 122°08'0 0.0
2018-Apr-18 15:56N 38°02' W 122°08'0 0.0
2018-Apr-18 15:26N 38°02' W 122°08'0 0.0
2018-Apr-18 14:56N 38°02' W 122°08'0 0.0
2018-Apr-18 14:20N 38°02' W 122°08'0 0.0
2018-Apr-18 13:56N 38°02' W 122°08'0 0.0
2018-Apr-18 13:26N 38°02' W 122°08'0 0.0
2018-Apr-18 12:56N 38°02' W 122°08'0 0.0
2018-Apr-18 12:26N 38°02' W 122°08'0 0.0
2018-Apr-18 11:56N 38°02' W 122°08'0 0.0
2018-Apr-18 11:26N 38°02' W 122°08'0 0.0
2018-Apr-18 10:56N 38°02' W 122°08'0 0.0
2018-Apr-18 10:26N 38°02' W 122°08'0 0.0
2018-Apr-18 09:56N 38°02' W 122°08'0 0.0
2018-Apr-18 09:14N 38°02' W 122°08'0 0.0
2018-Apr-18 08:56N 38°02' W 122°08'0 0.0
2018-Apr-18 08:26N 38°02' W 122°08'0 0.0
2018-Apr-18 07:56N 38°02' W 122°08'0 0.0
2018-Apr-18 07:26N 38°02' W 122°08'0 0.0
2018-Apr-18 06:50N 38°02' W 122°08'0 0.0
2018-Apr-18 06:26N 38°02' W 122°08'0 0.0
2018-Apr-18 05:56N 38°02' W 122°08'0 0.0
2018-Apr-18 05:20N 38°02' W 122°08'0 0.0
2018-Apr-18 04:50N 38°02' W 122°08'0 0.0
2018-Apr-18 04:26N 38°02' W 122°08'0 0.0
2018-Apr-18 03:56N 38°02' W 122°08'0 0.0
2018-Apr-18 03:26N 38°02' W 122°08'0 0.0
2018-Apr-18 02:56N 38°02' W 122°08'0 0.0
2018-Apr-18 02:26N 38°02' W 122°08'0 0.0
2018-Apr-18 01:56N 38°02' W 122°08'0 0.0
2018-Apr-18 01:26N 38°02' W 122°08'0 0.0
2018-Apr-18 00:56N 38°02' W 122°08'0 0.0
2018-Apr-18 00:20N 38°02' W 122°08'0 0.0
2018-Apr-17 23:14N 38°02' W 122°08'0 0.0
2018-Apr-17 22:56N 38°02' W 122°08'0 0.0
2018-Apr-17 22:26N 38°02' W 122°08'0 0.0
2018-Apr-17 21:44N 38°02' W 122°08'0 0.0
2018-Apr-17 21:26N 38°02' W 122°08'0 0.0
2018-Apr-17 20:56N 38°02' W 122°08'0 0.0
2018-Apr-17 20:26N 38°02' W 122°08'0 0.0
2018-Apr-17 19:50N 38°02' W 122°08'0 0.0
2018-Apr-17 19:30N 38°02' W 122°08'0 0.5
2018-Apr-17 19:00N 38°02' W 122°08'4 7.8
2018-Apr-17 18:30N 38°04' W 122°13'510.9
2018-Apr-17 18:00N 38°03' W 122°20'611.3
2018-Apr-17 17:30N 37°59' W 122°25'510.9
2018-Apr-17 17:00N 37°54' W 122°26'510.1
2018-Apr-17 16:30N 37°49' W 122°25'510.2
2018-Apr-17 16:00N 37°48' W 122°31'510.0
2018-Apr-17 15:30N 37°46' W 122°37'4 8.0
2018-Apr-17 15:00N 37°44' W 122°41'2 4.3
2018-Apr-17 14:30N 37°43' W 122°43'3 5.8
2018-Apr-17 14:00N 37°41' W 122°46'4 7.1
2018-Apr-17 13:30N 37°39' W 122°50'5 9.7
2018-Apr-17 13:00N 37°36' W 122°55'5 9.4
2018-Apr-17 12:30N 37°33' W 122°60'4 8.4
2018-Apr-17 12:00N 37°30' W 123°03'510.6
2018-Apr-17 11:30N 37°24' W 123°02'510.4
2018-Apr-17 11:00N 37°19' W 123°02'129 9.9
2018-Apr-16 22:00N 35°12' W 122°36'8110.3 300 / 27 5.4 13.9 16.0
2018-Apr-16 14:09N 34°08' W 121°35'210.8
2018-Apr-16 14:00N 34°07' W 121°34'510.7
2018-Apr-16 13:30N 34°04' W 121°28'510.5
2018-Apr-16 13:00N 34°02' W 121°23'510.7
2018-Apr-16 12:30N 33°60' W 121°17'510.5
2018-Apr-16 12:00N 33°58' W 121°11'510.5
2018-Apr-16 11:30N 33°56' W 121°05'510.4
2018-Apr-16 11:00N 33°54' W 120°59'510.4
2018-Apr-16 10:30N 33°52' W 120°54'5 9.9
2018-Apr-16 10:00N 33°50' W 120°48'5 9.9
2018-Apr-16 09:30N 33°48' W 120°43'510.1
2018-Apr-16 09:00N 33°46' W 120°37'510.4
2018-Apr-16 08:30N 33°44' W 120°31'611.0
2018-Apr-16 08:00N 33°42' W 120°25'611.3
2018-Apr-16 07:30N 33°41' W 120°18'611.3
2018-Apr-16 06:56N 33°41' W 120°10'511.0
2018-Apr-16 06:30N 33°41' W 120°05'611.6
2018-Apr-16 06:00N 33°41' W 119°58'611.6
2018-Apr-16 05:30N 33°41' W 119°51'611.2
2018-Apr-16 05:00N 33°41' W 119°44'611.0
2018-Apr-16 04:29N 33°41' W 119°37'510.9
2018-Apr-16 03:59N 33°41' W 119°31'511.0
2018-Apr-16 03:30N 33°41' W 119°24'510.7
2018-Apr-16 03:00N 33°41' W 119°18'510.5
2018-Apr-16 02:30N 33°41' W 119°12'612.0
2018-Apr-16 02:00N 33°41' W 119°05'611.6
2018-Apr-16 01:29N 33°41' W 118°57'511.1
2018-Apr-16 01:00N 33°40' W 118°51'611.1
2018-Apr-16 00:30N 33°40' W 118°44'611.5
2018-Apr-16 00:00N 33°39' W 118°37'511.0
2018-Apr-15 23:30N 33°39' W 118°31'510.6
2018-Apr-15 23:00N 33°38' W 118°25'510.7
2018-Apr-15 22:30N 33°38' W 118°18'5 9.6
2018-Apr-15 22:00N 33°40' W 118°13'2 4.5
2018-Apr-15 21:30N 33°42' W 118°12'0 0.3
2018-Apr-15 21:00N 33°42' W 118°12'2 4.8
2018-Apr-15 20:30N 33°43' W 118°15'3 5.1
2018-Apr-15 20:00N 33°45' W 118°16'0 0.0
2018-Apr-15 19:30N 33°45' W 118°16'0 0.0
2018-Apr-15 19:00N 33°45' W 118°16'0 0.0
2018-Apr-15 18:30N 33°45' W 118°16'0 0.0
2018-Apr-15 18:00N 33°45' W 118°16'0 0.0
2018-Apr-15 17:30N 33°45' W 118°16'0 0.0
2018-Apr-15 17:00N 33°45' W 118°16'0 0.0
2018-Apr-15 16:30N 33°45' W 118°16'0 0.0
2018-Apr-15 16:00N 33°45' W 118°16'0 0.0
2018-Apr-15 15:27N 33°45' W 118°16'0 0.0
2018-Apr-15 15:00N 33°45' W 118°16'0 0.0
2018-Apr-15 14:27N 33°45' W 118°16'0 0.0
2018-Apr-15 14:00N 33°45' W 118°16'0 0.0
2018-Apr-15 13:30N 33°45' W 118°16'0 0.0
2018-Apr-15 13:00N 33°45' W 118°16'0 0.0
2018-Apr-15 12:30N 33°45' W 118°16'0 0.0
2018-Apr-15 12:00N 33°45' W 118°16'0 0.0
2018-Apr-15 11:30N 33°45' W 118°16'0 0.0
2018-Apr-15 11:00N 33°45' W 118°16'0 0.0
2018-Apr-15 10:30N 33°45' W 118°16'0 0.0
2018-Apr-15 10:00N 33°45' W 118°16'0 0.0
2018-Apr-15 09:30N 33°45' W 118°16'0 0.0
2018-Apr-15 09:00N 33°45' W 118°16'0 0.0
2018-Apr-15 08:30N 33°45' W 118°16'0 0.0
2018-Apr-15 08:00N 33°45' W 118°16'0 0.0
2018-Apr-15 07:30N 33°45' W 118°16'0 0.0
2018-Apr-15 07:00N 33°45' W 118°16'0 0.0
2018-Apr-15 06:30N 33°45' W 118°16'0 0.0
2018-Apr-15 06:00N 33°45' W 118°16'0 0.0
2018-Apr-15 05:30N 33°45' W 118°16'0 0.0
2018-Apr-15 05:00N 33°45' W 118°16'0 0.0
2018-Apr-15 04:30N 33°45' W 118°16'0 0.0
2018-Apr-15 04:00N 33°45' W 118°16'0 0.0
2018-Apr-15 03:30N 33°45' W 118°16'0 0.0
2018-Apr-15 03:00N 33°45' W 118°16'0 0.0
2018-Apr-15 02:30N 33°45' W 118°16'0 0.0
2018-Apr-15 02:00N 33°45' W 118°16'0 0.0
2018-Apr-15 01:30N 33°45' W 118°16'0 0.0
2018-Apr-15 01:00N 33°45' W 118°16'0 0.0
2018-Apr-15 00:30N 33°45' W 118°16'0 0.0
2018-Apr-15 00:00N 33°45' W 118°16'0 0.0
2018-Apr-14 23:30N 33°45' W 118°16'0 0.0
2018-Apr-14 23:00N 33°45' W 118°16'0 0.0
2018-Apr-14 22:30N 33°45' W 118°16'0 0.0
2018-Apr-14 22:00N 33°45' W 118°16'0 0.0
2018-Apr-14 21:30N 33°45' W 118°16'0 0.0
2018-Apr-14 21:00N 33°45' W 118°16'0 0.0
2018-Apr-14 20:30N 33°45' W 118°16'0 0.0
2018-Apr-14 20:00N 33°45' W 118°16'0 0.0
2018-Apr-14 19:30N 33°45' W 118°16'0 0.0
2018-Apr-14 19:00N 33°45' W 118°16'0 0.0
2018-Apr-14 18:30N 33°45' W 118°16'0 0.0
2018-Apr-14 18:00N 33°45' W 118°16'0 0.0
2018-Apr-14 17:30N 33°45' W 118°16'1 1.4
2018-Apr-14 17:00N 33°45' W 118°16'3 6.2
2018-Apr-14 16:30N 33°42' W 118°15'3 6.8
2018-Apr-14 16:00N 33°39' W 118°15'510.0
2018-Apr-14 15:29N 33°36' W 118°20'611.4
2018-Apr-14 14:59N 33°36' W 118°27'611.3
2018-Apr-14 14:30N 33°35' W 118°34'510.8
2018-Apr-14 14:00N 33°35' W 118°40'610.8
2018-Apr-14 13:28N 33°37' W 118°47'4 9.5
2018-Apr-14 13:00N 33°37' W 118°52'611.7
2018-Apr-14 12:30N 33°38' W 118°59'611.4
2018-Apr-14 12:00N 33°38' W 119°06'611.1
2018-Apr-14 11:30N 33°38' W 119°13'611.1
2018-Apr-14 10:57N 33°38' W 119°20'511.5
2018-Apr-14 10:30N 33°38' W 119°26'611.6
2018-Apr-14 09:59N 33°38' W 119°33'511.3
2018-Apr-14 09:30N 33°38' W 119°40'510.8
2018-Apr-14 09:00N 33°38' W 119°46'611.1
2018-Apr-14 08:30N 33°38' W 119°53'612.0
2018-Apr-14 08:00N 33°38' W 120°00'711.4
2018-Apr-14 07:25N 33°38' W 120°08'511.1
2018-Apr-14 06:57N 33°38' W 120°14'511.2
2018-Apr-14 06:30N 33°40' W 120°20'611.4
2018-Apr-14 05:58N 33°42' W 120°27'611.3
2018-Apr-14 05:28N 33°44' W 120°33'511.4
2018-Apr-14 05:00N 33°46' W 120°39'611.6
2018-Apr-14 04:30N 33°48' W 120°45'611.4
2018-Apr-14 04:00N 33°51' W 120°52'611.6
2018-Apr-14 03:29N 33°53' W 120°58'511.5
2018-Apr-14 03:00N 33°55' W 121°04'611.3
2018-Apr-14 02:30N 33°58' W 121°11'611.2
2018-Apr-14 02:00N 33°60' W 121°17'611.4
2018-Apr-14 01:29N 34°02' W 121°23'611.5
2018-Apr-14 00:59N 34°05' W 121°30'511.0
2018-Apr-14 00:30N 34°07' W 121°35'611.6
2018-Apr-14 00:00N 34°12' W 121°40'611.6
2018-Apr-13 23:30N 34°16' W 121°44'3911.2
2018-Apr-13 20:00N 34°48' W 122°12'5211.0 340 / 271029.0 5.4 13.3 11.1
2018-Apr-13 15:17N 35°26' W 122°55'12010.5
2018-Apr-13 03:49N 37°25' W 123°17'410.5
2018-Apr-13 03:24N 37°28' W 123°14'410.0
2018-Apr-13 03:00N 37°31' W 123°10'510.2
2018-Apr-13 02:30N 37°34' W 123°04'5 9.5
2018-Apr-13 02:00N 37°36' W 122°60'5 9.4
2018-Apr-13 01:29N 37°39' W 122°54'4 9.2
2018-Apr-13 01:00N 37°41' W 122°50'5 9.3
2018-Apr-13 00:30N 37°44' W 122°45'4 8.1
2018-Apr-13 00:01N 37°44' W 122°40'4 7.4
2018-Apr-12 23:30N 37°47' W 122°36'611.7
2018-Apr-12 23:00N 37°49' W 122°29'4 8.5
2018-Apr-12 22:30N 37°49' W 122°24'4 8.1
2018-Apr-12 22:00N 37°46' W 122°20'0 0.1
2018-Apr-12 21:29N 37°46' W 122°20'0 0.0
2018-Apr-12 20:59N 37°46' W 122°20'0 0.0
2018-Apr-12 20:29N 37°46' W 122°20'0 0.0
2018-Apr-12 19:56N 37°46' W 122°20'0 0.0
2018-Apr-12 19:29N 37°46' W 122°20'0 0.0
2018-Apr-12 18:59N 37°46' W 122°20'0 0.3
2018-Apr-12 18:29N 37°46' W 122°21'0 0.3
2018-Apr-12 17:59N 37°46' W 122°20'0 0.1
2018-Apr-12 17:29N 37°46' W 122°20'0 0.0
2018-Apr-12 16:59N 37°46' W 122°20'0 0.1
2018-Apr-12 16:29N 37°46' W 122°20'  
Track history (hours):
 
Tides and Currents Weather Stations Pressure Air Temp Water Temp Dewpoint Dewpoint Depression Visibility Wind Speed Wind Dir Waves Ship Positions

Gulf Reliance

Owner: Intrepid Ship Management, Jacksonville, FL. More information available from US FCC via Universal Licensing System and Coast Guard Vessel Documentation Center.

Last reported at 2018-Apr-22 16:01 UTC. Time now 2018-Apr-22 16:26 UTC.
Position N 33°48' W 120°45'.

Type: Towing. MMSI: 303668000.

Date/timePositionNaut miles runAvg speedWind from/ knotsBaromVisibWave heightAir tempDewpointWater temp
2018-Apr-22 16:01N 33°48' W 120°45'612.2
2018-Apr-22 15:30N 33°51' W 120°52'611.8
2018-Apr-22 15:00N 33°54' W 120°58'611.9
2018-Apr-22 14:28N 33°56' W 121°05'611.5
2018-Apr-22 14:00N 33°58' W 121°12'611.3
2018-Apr-22 13:30N 34°00' W 121°18'611.4
2018-Apr-22 13:01N 34°02' W 121°24'611.2
2018-Apr-22 12:30N 34°05' W 121°30'510.8
2018-Apr-22 12:01N 34°08' W 121°35'611.0
2018-Apr-22 11:29N 34°12' W 121°40'510.9
2018-Apr-22 11:00N 34°16' W 121°45'611.1
2018-Apr-22 10:28N 34°20' W 121°49'511.1
2018-Apr-22 10:00N 34°24' W 121°53'611.2
2018-Apr-22 09:30N 34°29' W 121°58'611.4
2018-Apr-22 09:00N 34°33' W 122°02'611.6
2018-Apr-22 08:29N 34°38' W 122°07'611.4
2018-Apr-22 08:00N 34°42' W 122°11'511.2
2018-Apr-22 07:30N 34°46' W 122°16'611.0
2018-Apr-22 07:00N 34°50' W 122°20'711.1
2018-Apr-22 06:20N 34°56' W 122°26'411.1
2018-Apr-22 05:57N 34°59' W 122°29'511.2
2018-Apr-22 05:30N 35°03' W 122°33'611.3
2018-Apr-22 05:00N 35°07' W 122°37'711.4
2018-Apr-22 04:21N 35°13' W 122°43'411.1
2018-Apr-22 03:59N 35°16' W 122°46'511.0
2018-Apr-22 03:30N 35°20' W 122°50'711.2
2018-Apr-22 02:50N 35°27' W 122°56'411.4
2018-Apr-22 02:30N 35°30' W 122°58'511.2
2018-Apr-22 02:00N 35°35' W 123°00'611.3
2018-Apr-22 01:29N 35°41' W 123°01'611.4
2018-Apr-22 00:55N 35°47' W 123°01'511.6
2018-Apr-22 00:29N 35°52' W 123°02'611.8
2018-Apr-22 00:00N 35°58' W 123°02'611.7
2018-Apr-21 23:30N 36°04' W 123°03'611.9
2018-Apr-21 23:00N 36°10' W 123°03'611.7
2018-Apr-21 22:30N 36°16' W 123°04'611.7
2018-Apr-21 21:59N 36°22' W 123°04'911.7
2018-Apr-21 21:14N 36°30' W 123°05'311.8
2018-Apr-21 20:58N 36°33' W 123°06'911.6
2018-Apr-21 20:14N 36°42' W 123°06'311.8
2018-Apr-21 20:00N 36°45' W 123°06'711.8
2018-Apr-21 19:23N 36°52' W 123°07'411.7
2018-Apr-21 19:00N 36°56' W 123°07'611.7
2018-Apr-21 18:30N 37°02' W 123°08'611.3
2018-Apr-21 17:58N 37°08' W 123°08'511.3
2018-Apr-21 17:30N 37°14' W 123°08'611.3
2018-Apr-21 17:00N 37°19' W 123°08'611.4
2018-Apr-21 16:30N 37°25' W 123°09'510.9
2018-Apr-21 16:01N 37°30' W 123°08'510.5
2018-Apr-21 15:30N 37°34' W 123°04'5 9.4
2018-Apr-21 15:00N 37°37' W 122°59'5 9.6
2018-Apr-21 14:30N 37°39' W 122°54'5 9.7
2018-Apr-21 14:00N 37°42' W 122°49'511.0
2018-Apr-21 13:30N 37°45' W 122°43'510.1
2018-Apr-21 13:00N 37°46' W 122°37'612.1
2018-Apr-21 12:30N 37°49' W 122°30'5 9.3
2018-Apr-21 12:00N 37°49' W 122°24'510.4
2018-Apr-21 11:30N 37°44' W 122°21'1 2.8
2018-Apr-21 11:00N 37°43' W 122°20'0 0.0
2018-Apr-21 10:30N 37°43' W 122°20'0 0.0
2018-Apr-21 10:00N 37°43' W 122°20'0 0.0
2018-Apr-21 09:30N 37°43' W 122°20'0 0.0
2018-Apr-21 09:00N 37°43' W 122°20'0 0.0
2018-Apr-21 08:30N 37°43' W 122°20'0 0.0
2018-Apr-21 07:57N 37°43' W 122°20'0 0.0
2018-Apr-21 07:30N 37°43' W 122°20'0 0.1
2018-Apr-21 07:00N 37°43' W 122°20'0 0.2
2018-Apr-21 06:30N 37°43' W 122°20'0 0.2
2018-Apr-21 06:00N 37°43' W 122°20'0 0.1
2018-Apr-21 05:30N 37°43' W 122°20'0 0.1
2018-Apr-21 05:00N 37°43' W 122°20'0 0.0
2018-Apr-21 04:30N 37°43' W 122°20'0 0.1
2018-Apr-21 04:00N 37°43' W 122°20'0 0.0
2018-Apr-21 03:30N 37°43' W 122°20'0 0.1
2018-Apr-21 03:00N 37°43' W 122°20'0 0.1
2018-Apr-21 02:30N 37°43' W 122°20'0 0.1
2018-Apr-21 02:00N 37°43' W 122°20'0 0.1
2018-Apr-21 01:30N 37°43' W 122°20'0 0.1
2018-Apr-21 00:57N 37°43' W 122°20'0 0.0
2018-Apr-21 00:30N 37°43' W 122°20'0 0.0
2018-Apr-21 00:00N 37°43' W 122°20'0 0.1
2018-Apr-20 23:30N 37°43' W 122°20'0 0.0
2018-Apr-20 23:00N 37°43' W 122°20'0 0.0
2018-Apr-20 22:30N 37°43' W 122°20'0 0.0
2018-Apr-20 22:00N 37°43' W 122°20'0 0.0
2018-Apr-20 21:30N 37°43' W 122°20'0 0.0
2018-Apr-20 21:00N 37°43' W 122°20'0 0.1
2018-Apr-20 20:30N 37°43' W 122°20'0 0.0
2018-Apr-20 20:00N 37°43' W 122°20'0 0.0
2018-Apr-20 19:30N 37°43' W 122°20'0 0.0
2018-Apr-20 19:00N 37°43' W 122°20'0 0.2
2018-Apr-20 18:30N 37°43' W 122°20'0 0.3
2018-Apr-20 17:57N 37°43' W 122°20'0 0.1
2018-Apr-20 17:30N 37°43' W 122°20'0 0.0
2018-Apr-20 17:00N 37°43' W 122°20'0 0.0
2018-Apr-20 16:30N 37°43' W 122°20'0 0.0
2018-Apr-20 16:00N 37°43' W 122°20'0 0.0
2018-Apr-20 15:30N 37°43' W 122°20'0 0.0
2018-Apr-20 15:00N 37°43' W 122°20'0 0.0
2018-Apr-20 14:30N 37°43' W 122°20'0 0.0
2018-Apr-20 14:00N 37°43' W 122°20'0 0.0
2018-Apr-20 13:30N 37°43' W 122°20'0 0.0
2018-Apr-20 13:00N 37°43' W 122°20'0 0.0
2018-Apr-20 12:30N 37°43' W 122°20'0 0.1
2018-Apr-20 12:00N 37°43' W 122°20'0 0.2
2018-Apr-20 11:30N 37°43' W 122°20'0 0.2
2018-Apr-20 11:00N 37°43' W 122°20'0 0.1
2018-Apr-20 10:30N 37°43' W 122°20'0 0.0
2018-Apr-20 10:00N 37°43' W 122°20'0 0.1
2018-Apr-20 09:30N 37°43' W 122°20'0 0.0
2018-Apr-20 09:00N 37°43' W 122°20'0 0.0
2018-Apr-20 08:30N 37°43' W 122°20'0 0.0
2018-Apr-20 08:00N 37°43' W 122°20'0 0.0
2018-Apr-20 07:30N 37°43' W 122°20'0 0.0
2018-Apr-20 07:00N 37°43' W 122°20'0 0.0
2018-Apr-20 06:30N 37°43' W 122°20'0 0.1
2018-Apr-20 06:00N 37°43' W 122°20'0 0.2
2018-Apr-20 05:30N 37°43' W 122°20'0 0.2
2018-Apr-20 05:00N 37°43' W 122°20'0 0.2
2018-Apr-20 04:30N 37°43' W 122°20'0 0.0
2018-Apr-20 04:00N 37°43' W 122°20'0 0.2
2018-Apr-20 03:30N 37°43' W 122°20'3 5.8
2018-Apr-20 03:00N 37°46' W 122°22'4 9.0
2018-Apr-20 02:30N 37°50' W 122°24'510.6
2018-Apr-20 02:00N 37°55' W 122°27'510.7
2018-Apr-20 01:30N 37°60' W 122°25'5 9.6
2018-Apr-20 01:00N 38°03' W 122°20'4 8.5
2018-Apr-20 00:30N 38°04' W 122°15'4 6.9
2018-Apr-19 23:59N 38°03' W 122°11'2 4.2
2018-Apr-19 23:26N 38°02' W 122°08'0 0.2
2018-Apr-19 22:56N 38°02' W 122°08'0 0.0
2018-Apr-19 22:26N 38°02' W 122°08'0 0.0
2018-Apr-19 21:56N 38°02' W 122°08'0 0.0
2018-Apr-19 21:26N 38°02' W 122°08'0 0.0
2018-Apr-19 20:56N 38°02' W 122°08'0 0.0
2018-Apr-19 20:20N 38°02' W 122°08'0 0.0
2018-Apr-19 19:56N 38°02' W 122°08'0 0.0
2018-Apr-19 19:26N 38°02' W 122°08'0 0.0
2018-Apr-19 18:50N 38°02' W 122°08'0 0.0
2018-Apr-19 18:26N 38°02' W 122°08'0 0.0
2018-Apr-19 17:26N 38°02' W 122°08'0 0.0
2018-Apr-19 16:56N 38°02' W 122°08'0 0.0
2018-Apr-19 16:26N 38°02' W 122°08'0 0.0
2018-Apr-19 15:56N 38°02' W 122°08'0 0.0
2018-Apr-19 15:26N 38°02' W 122°08'0 0.0
2018-Apr-19 14:56N 38°02' W 122°08'0 0.0
2018-Apr-19 14:26N 38°02' W 122°08'0 0.0
2018-Apr-19 13:56N 38°02' W 122°08'0 0.0
2018-Apr-19 13:20N 38°02' W 122°08'0 0.0
2018-Apr-19 12:50N 38°02' W 122°08'0 0.0
2018-Apr-19 12:26N 38°02' W 122°08'0 0.0
2018-Apr-19 11:44N 38°02' W 122°08'0 0.0
2018-Apr-19 11:26N 38°02' W 122°08'0 0.0
2018-Apr-19 10:56N 38°02' W 122°08'0 0.0
2018-Apr-19 10:20N 38°02' W 122°08'0 0.0
2018-Apr-19 09:56N 38°02' W 122°08'0 0.0
2018-Apr-19 09:26N 38°02' W 122°08'0 0.0
2018-Apr-19 08:56N 38°02' W 122°08'0 0.0
2018-Apr-19 08:26N 38°02' W 122°08'0 0.0
2018-Apr-19 07:56N 38°02' W 122°08'0 0.0
2018-Apr-19 07:26N 38°02' W 122°08'0 0.0
2018-Apr-19 06:56N 38°02' W 122°08'0 0.0
2018-Apr-19 06:20N 38°02' W 122°08'0 0.0
2018-Apr-19 05:56N 38°02' W 122°08'0 0.0
2018-Apr-19 05:26N 38°02' W 122°08'0 0.0
2018-Apr-19 04:50N 38°02' W 122°08'0 0.0
2018-Apr-19 04:26N 38°02' W 122°08'0 0.0
2018-Apr-19 03:56N 38°02' W 122°08'0 0.0
2018-Apr-19 03:26N 38°02' W 122°08'0 0.0
2018-Apr-19 02:56N 38°02' W 122°08'0 0.0
2018-Apr-19 02:26N 38°02' W 122°08'0 0.0
2018-Apr-19 01:50N 38°02' W 122°08'0 0.0
2018-Apr-19 01:26N 38°02' W 122°08'0 0.0
2018-Apr-19 00:50N 38°02' W 122°08'0 0.0
2018-Apr-19 00:26N 38°02' W 122°08'0 0.0
2018-Apr-18 23:50N 38°02' W 122°08'0 0.0
2018-Apr-18 23:26N 38°02' W 122°08'0 0.0
2018-Apr-18 22:56N 38°02' W 122°08'0 0.0
2018-Apr-18 22:14N 38°02' W 122°08'0 0.0
2018-Apr-18 21:50N 38°02' W 122°08'0 0.0
2018-Apr-18 21:08N 38°02' W 122°08'0 0.0
2018-Apr-18 20:38N 38°02' W 122°08'0 0.0
2018-Apr-18 20:14N 38°02' W 122°08'0 0.0
2018-Apr-18 19:50N 38°02' W 122°08'0 0.0
2018-Apr-18 19:26N 38°02' W 122°08'0 0.0
2018-Apr-18 18:56N 38°02' W 122°08'0 0.0
2018-Apr-18 18:20N 38°02' W 122°08'0 0.0
2018-Apr-18 17:32N 38°02' W 122°08'0 0.0
2018-Apr-18 17:26N 38°02' W 122°08'0 0.0
2018-Apr-18 16:56N 38°02' W 122°08'0 0.0
2018-Apr-18 16:26N 38°02' W 122°08'0 0.0
2018-Apr-18 15:56N 38°02' W 122°08'0 0.0
2018-Apr-18 15:26N 38°02' W 122°08'0 0.0
2018-Apr-18 14:56N 38°02' W 122°08'0 0.0
2018-Apr-18 14:20N 38°02' W 122°08'0 0.0
2018-Apr-18 13:56N 38°02' W 122°08'0 0.0
2018-Apr-18 13:26N 38°02' W 122°08'0 0.0
2018-Apr-18 12:56N 38°02' W 122°08'0 0.0
2018-Apr-18 12:26N 38°02' W 122°08'0 0.0
2018-Apr-18 11:56N 38°02' W 122°08'0 0.0
2018-Apr-18 11:26N 38°02' W 122°08'0 0.0
2018-Apr-18 10:56N 38°02' W 122°08'0 0.0
2018-Apr-18 10:26N 38°02' W 122°08'0 0.0
2018-Apr-18 09:56N 38°02' W 122°08'0 0.0
2018-Apr-18 09:14N 38°02' W 122°08'0 0.0
2018-Apr-18 08:56N 38°02' W 122°08'0 0.0
2018-Apr-18 08:26N 38°02' W 122°08'0 0.0
2018-Apr-18 07:56N 38°02' W 122°08'0 0.0
2018-Apr-18 07:26N 38°02' W 122°08'0 0.0
2018-Apr-18 06:50N 38°02' W 122°08'0 0.0
2018-Apr-18 06:26N 38°02' W 122°08'0 0.0
2018-Apr-18 05:56N 38°02' W 122°08'0 0.0
2018-Apr-18 05:20N 38°02' W 122°08'0 0.0
2018-Apr-18 04:50N 38°02' W 122°08'0 0.0
2018-Apr-18 04:26N 38°02' W 122°08'0 0.0
2018-Apr-18 03:56N 38°02' W 122°08'0 0.0
2018-Apr-18 03:26N 38°02' W 122°08'0 0.0
2018-Apr-18 02:56N 38°02' W 122°08'0 0.0
2018-Apr-18 02:26N 38°02' W 122°08'0 0.0
2018-Apr-18 01:56N 38°02' W 122°08'0 0.0
2018-Apr-18 01:26N 38°02' W 122°08'0 0.0
2018-Apr-18 00:56N 38°02' W 122°08'0 0.0
2018-Apr-18 00:20N 38°02' W 122°08'0 0.0
2018-Apr-17 23:14N 38°02' W 122°08'0 0.0
2018-Apr-17 22:56N 38°02' W 122°08'0 0.0
2018-Apr-17 22:26N 38°02' W 122°08'0 0.0
2018-Apr-17 21:44N 38°02' W 122°08'0 0.0
2018-Apr-17 21:26N 38°02' W 122°08'0 0.0
2018-Apr-17 20:56N 38°02' W 122°08'0 0.0
2018-Apr-17 20:26N 38°02' W 122°08'0 0.0
2018-Apr-17 19:50N 38°02' W 122°08'0 0.0
2018-Apr-17 19:30N 38°02' W 122°08'0 0.5
2018-Apr-17 19:00N 38°02' W 122°08'4 7.8
2018-Apr-17 18:30N 38°04' W 122°13'510.9
2018-Apr-17 18:00N 38°03' W 122°20'611.3
2018-Apr-17 17:30N 37°59' W 122°25'510.9
2018-Apr-17 17:00N 37°54' W 122°26'510.1
2018-Apr-17 16:30N 37°49' W 122°25'510.2
2018-Apr-17 16:00N 37°48' W 122°31'510.0
2018-Apr-17 15:30N 37°46' W 122°37'4 8.0
2018-Apr-17 15:00N 37°44' W 122°41'2 4.3
2018-Apr-17 14:30N 37°43' W 122°43'3 5.8
2018-Apr-17 14:00N 37°41' W 122°46'4 7.1
2018-Apr-17 13:30N 37°39' W 122°50'5 9.7
2018-Apr-17 13:00N 37°36' W 122°55'5 9.4
2018-Apr-17 12:30N 37°33' W 122°60'4 8.4
2018-Apr-17 12:00N 37°30' W 123°03'510.6
2018-Apr-17 11:30N 37°24' W 123°02'510.4
2018-Apr-17 11:00N 37°19' W 123°02'129 9.9
2018-Apr-16 22:00N 35°12' W 122°36'8110.3 300 / 27 5.4 13.9 16.0
2018-Apr-16 14:09N 34°08' W 121°35'210.8
2018-Apr-16 14:00N 34°07' W 121°34'510.7
2018-Apr-16 13:30N 34°04' W 121°28'510.5
2018-Apr-16 13:00N 34°02' W 121°23'510.7
2018-Apr-16 12:30N 33°60' W 121°17'510.5
2018-Apr-16 12:00N 33°58' W 121°11'510.5
2018-Apr-16 11:30N 33°56' W 121°05'510.4
2018-Apr-16 11:00N 33°54' W 120°59'510.4
2018-Apr-16 10:30N 33°52' W 120°54'5 9.9
2018-Apr-16 10:00N 33°50' W 120°48'5 9.9
2018-Apr-16 09:30N 33°48' W 120°43'510.1
2018-Apr-16 09:00N 33°46' W 120°37'510.4
2018-Apr-16 08:30N 33°44' W 120°31'611.0
2018-Apr-16 08:00N 33°42' W 120°25'611.3
2018-Apr-16 07:30N 33°41' W 120°18'611.3
2018-Apr-16 06:56N 33°41' W 120°10'511.0
2018-Apr-16 06:30N 33°41' W 120°05'611.6
2018-Apr-16 06:00N 33°41' W 119°58'611.6
2018-Apr-16 05:30N 33°41' W 119°51'611.2
2018-Apr-16 05:00N 33°41' W 119°44'611.0
2018-Apr-16 04:29N 33°41' W 119°37'510.9
2018-Apr-16 03:59N 33°41' W 119°31'511.0
2018-Apr-16 03:30N 33°41' W 119°24'510.7
2018-Apr-16 03:00N 33°41' W 119°18'510.5
2018-Apr-16 02:30N 33°41' W 119°12'612.0
2018-Apr-16 02:00N 33°41' W 119°05'611.6
2018-Apr-16 01:29N 33°41' W 118°57'511.1
2018-Apr-16 01:00N 33°40' W 118°51'611.1
2018-Apr-16 00:30N 33°40' W 118°44'611.5
2018-Apr-16 00:00N 33°39' W 118°37'511.0
2018-Apr-15 23:30N 33°39' W 118°31'510.6
2018-Apr-15 23:00N 33°38' W 118°25'510.7
2018-Apr-15 22:30N 33°38' W 118°18'5 9.6
2018-Apr-15 22:00N 33°40' W 118°13'2 4.5
2018-Apr-15 21:30N 33°42' W 118°12'0 0.3
2018-Apr-15 21:00N 33°42' W 118°12'2 4.8
2018-Apr-15 20:30N 33°43' W 118°15'3 5.1
2018-Apr-15 20:00N 33°45' W 118°16'0 0.0
2018-Apr-15 19:30N 33°45' W 118°16'0 0.0
2018-Apr-15 19:00N 33°45' W 118°16'0 0.0
2018-Apr-15 18:30N 33°45' W 118°16'0 0.0
2018-Apr-15 18:00N 33°45' W 118°16'0 0.0
2018-Apr-15 17:30N 33°45' W 118°16'0 0.0
2018-Apr-15 17:00N 33°45' W 118°16'0 0.0
2018-Apr-15 16:30N 33°45' W 118°16'0 0.0
2018-Apr-15 16:00N 33°45' W 118°16'0 0.0
2018-Apr-15 15:27N 33°45' W 118°16'0 0.0
2018-Apr-15 15:00N 33°45' W 118°16'0 0.0
2018-Apr-15 14:27N 33°45' W 118°16'0 0.0
2018-Apr-15 14:00N 33°45' W 118°16'0 0.0
2018-Apr-15 13:30N 33°45' W 118°16'0 0.0
2018-Apr-15 13:00N 33°45' W 118°16'0 0.0
2018-Apr-15 12:30N 33°45' W 118°16'0 0.0
2018-Apr-15 12:00N 33°45' W 118°16'0 0.0
2018-Apr-15 11:30N 33°45' W 118°16'0 0.0
2018-Apr-15 11:00N 33°45' W 118°16'0 0.0
2018-Apr-15 10:30N 33°45' W 118°16'0 0.0
2018-Apr-15 10:00N 33°45' W 118°16'0 0.0
2018-Apr-15 09:30N 33°45' W 118°16'0 0.0
2018-Apr-15 09:00N 33°45' W 118°16'0 0.0
2018-Apr-15 08:30N 33°45' W 118°16'0 0.0
2018-Apr-15 08:00N 33°45' W 118°16'0 0.0
2018-Apr-15 07:30N 33°45' W 118°16'0 0.0
2018-Apr-15 07:00N 33°45' W 118°16'0 0.0
2018-Apr-15 06:30N 33°45' W 118°16'0 0.0
2018-Apr-15 06:00N 33°45' W 118°16'0 0.0
2018-Apr-15 05:30N 33°45' W 118°16'0 0.0
2018-Apr-15 05:00N 33°45' W 118°16'0 0.0
2018-Apr-15 04:30N 33°45' W 118°16'0 0.0
2018-Apr-15 04:00N 33°45' W 118°16'0 0.0
2018-Apr-15 03:30N 33°45' W 118°16'0 0.0
2018-Apr-15 03:00N 33°45' W 118°16'0 0.0
2018-Apr-15 02:30N 33°45' W 118°16'0 0.0
2018-Apr-15 02:00N 33°45' W 118°16'0 0.0
2018-Apr-15 01:30N 33°45' W 118°16'0 0.0
2018-Apr-15 01:00N 33°45' W 118°16'0 0.0
2018-Apr-15 00:30N 33°45' W 118°16'0 0.0
2018-Apr-15 00:00N 33°45' W 118°16'0 0.0
2018-Apr-14 23:30N 33°45' W 118°16'0 0.0
2018-Apr-14 23:00N 33°45' W 118°16'0 0.0
2018-Apr-14 22:30N 33°45' W 118°16'0 0.0
2018-Apr-14 22:00N 33°45' W 118°16'0 0.0
2018-Apr-14 21:30N 33°45' W 118°16'0 0.0
2018-Apr-14 21:00N 33°45' W 118°16'0 0.0
2018-Apr-14 20:30N 33°45' W 118°16'0 0.0
2018-Apr-14 20:00N 33°45' W 118°16'0 0.0
2018-Apr-14 19:30N 33°45' W 118°16'0 0.0
2018-Apr-14 19:00N 33°45' W 118°16'0 0.0
2018-Apr-14 18:30N 33°45' W 118°16'0 0.0
2018-Apr-14 18:00N 33°45' W 118°16'0 0.0
2018-Apr-14 17:30N 33°45' W 118°16'1 1.4
2018-Apr-14 17:00N 33°45' W 118°16'3 6.2
2018-Apr-14 16:30N 33°42' W 118°15'3 6.8
2018-Apr-14 16:00N 33°39' W 118°15'510.0
2018-Apr-14 15:29N 33°36' W 118°20'611.4
2018-Apr-14 14:59N 33°36' W 118°27'611.3
2018-Apr-14 14:30N 33°35' W 118°34'510.8
2018-Apr-14 14:00N 33°35' W 118°40'610.8
2018-Apr-14 13:28N 33°37' W 118°47'4 9.5
2018-Apr-14 13:00N 33°37' W 118°52'611.7
2018-Apr-14 12:30N 33°38' W 118°59'611.4
2018-Apr-14 12:00N 33°38' W 119°06'611.1
2018-Apr-14 11:30N 33°38' W 119°13'611.1
2018-Apr-14 10:57N 33°38' W 119°20'511.5
2018-Apr-14 10:30N 33°38' W 119°26'611.6
2018-Apr-14 09:59N 33°38' W 119°33'511.3
2018-Apr-14 09:30N 33°38' W 119°40'510.8
2018-Apr-14 09:00N 33°38' W 119°46'611.1
2018-Apr-14 08:30N 33°38' W 119°53'612.0
2018-Apr-14 08:00N 33°38' W 120°00'711.4
2018-Apr-14 07:25N 33°38' W 120°08'511.1
2018-Apr-14 06:57N 33°38' W 120°14'511.2
2018-Apr-14 06:30N 33°40' W 120°20'611.4
2018-Apr-14 05:58N 33°42' W 120°27'611.3
2018-Apr-14 05:28N 33°44' W 120°33'511.4
2018-Apr-14 05:00N 33°46' W 120°39'611.6
2018-Apr-14 04:30N 33°48' W 120°45'611.4
2018-Apr-14 04:00N 33°51' W 120°52'611.6
2018-Apr-14 03:29N 33°53' W 120°58'511.5
2018-Apr-14 03:00N 33°55' W 121°04'611.3
2018-Apr-14 02:30N 33°58' W 121°11'611.2
2018-Apr-14 02:00N 33°60' W 121°17'611.4
2018-Apr-14 01:29N 34°02' W 121°23'611.5
2018-Apr-14 00:59N 34°05' W 121°30'511.0
2018-Apr-14 00:30N 34°07' W 121°35'611.6
2018-Apr-14 00:00N 34°12' W 121°40'611.6
2018-Apr-13 23:30N 34°16' W 121°44'3911.2
2018-Apr-13 20:00N 34°48' W 122°12'5211.0 340 / 271029.0 5.4 13.3 11.1
2018-Apr-13 15:17N 35°26' W 122°55'12010.5
2018-Apr-13 03:49N 37°25' W 123°17'410.5
2018-Apr-13 03:24N 37°28' W 123°14'410.0
2018-Apr-13 03:00N 37°31' W 123°10'510.2
2018-Apr-13 02:30N 37°34' W 123°04'5 9.5
2018-Apr-13 02:00N 37°36' W 122°60'5 9.4
2018-Apr-13 01:29N 37°39' W 122°54'4 9.2
2018-Apr-13 01:00N 37°41' W 122°50'5 9.3
2018-Apr-13 00:30N 37°44' W 122°45'4 8.1
2018-Apr-13 00:01N 37°44' W 122°40'4 7.4
2018-Apr-12 23:30N 37°47' W 122°36'611.7
2018-Apr-12 23:00N 37°49' W 122°29'4 8.5
2018-Apr-12 22:30N 37°49' W 122°24'4 8.1
2018-Apr-12 22:00N 37°46' W 122°20'0 0.1
2018-Apr-12 21:29N 37°46' W 122°20'0 0.0
2018-Apr-12 20:59N 37°46' W 122°20'0 0.0
2018-Apr-12 20:29N 37°46' W 122°20'0 0.0
2018-Apr-12 19:56N 37°46' W 122°20'0 0.0
2018-Apr-12 19:29N 37°46' W 122°20'0 0.0
2018-Apr-12 18:59N 37°46' W 122°20'0 0.3
2018-Apr-12 18:29N 37°46' W 122°21'0 0.3
2018-Apr-12 17:59N 37°46' W 122°20'0 0.1
2018-Apr-12 17:29N 37°46' W 122°20'0 0.0
2018-Apr-12 16:59N 37°46' W 122°20'0 0.1
2018-Apr-12 16:29N 37°46' W 122°20'  

Dump ship's entire track history